Time;durP1;ratioP1;P1;durP2;ratioP2;P2;SDS_P1;SDS_P2;PMS_P1;PMS_P2;Temp;Humidity;BMP_temperature;BMP_pressure;BME280_temperature;BME280_humidity;BME280_pressure;Samples;Min_cycle;Max_cycle;Signal;HPM_P1;HPM_P2
2023/05/17 00:00:08;;;;;;;7.93;2.60;;;13.00;95.10;;;;;;4214239;28;20044;-52
2023/05/17 00:02:10;;;;;;;;;;;13.00;95.10;;;;;;4196551;28;20078;-55
2023/05/17 00:04:14;;;;;;;11.85;2.78;;;13.00;95.00;;;;;;4212709;28;19958;-56
2023/05/17 00:06:16;;;;;;;13.45;4.30;;;13.00;95.00;;;;;;4214589;28;20048;-52
2023/05/17 00:08:18;;;;;;;23.55;4.22;;;13.00;95.00;;;;;;4214082;28;20135;-53
2023/05/17 00:10:20;;;;;;;14.32;3.75;;;12.90;95.00;;;;;;4213380;28;20124;-54
2023/05/17 00:12:22;;;;;;;14.80;3.83;;;12.90;95.10;;;;;;4213400;28;20133;-53
2023/05/17 00:14:24;;;;;;;22.13;4.32;;;12.90;95.00;;;;;;4212459;28;20043;-52
2023/05/17 00:16:26;;;;;;;11.45;3.13;;;12.90;95.00;;;;;;4213176;28;20131;-53
2023/05/17 00:18:28;;;;;;;18.42;3.00;;;12.90;95.00;;;;;;4212976;28;20126;-53
2023/05/17 00:20:33;;;;;;;15.45;3.17;;;12.90;94.90;;;;;;4213271;28;20113;-52
2023/05/17 00:22:35;;;;;;;12.25;3.25;;;12.90;94.90;;;;;;4212571;28;20124;-53
2023/05/17 00:24:37;;;;;;;9.00;2.75;;;12.80;95.00;;;;;;4213369;28;20489;-53
2023/05/17 00:26:41;;;;;;;13.90;2.72;;;12.80;95.00;;;;;;4213255;28;20465;-54
2023/05/17 00:28:43;;;;;;;10.10;2.45;;;12.80;94.90;;;;;;4215584;28;20071;-52
2023/05/17 00:30:45;;;;;;;10.15;2.90;;;12.80;94.90;;;;;;4216559;28;20413;-53
2023/05/17 00:32:47;;;;;;;11.55;2.70;;;12.80;94.90;;;;;;4215538;28;20044;-53
2023/05/17 00:34:49;;;;;;;10.70;3.00;;;12.80;95.00;;;;;;4215916;28;20076;-52
2023/05/17 00:36:52;;;;;;;7.40;2.42;;;12.70;95.10;;;;;;4216480;28;20073;-53
2023/05/17 00:38:54;;;;;;;8.05;3.00;;;12.70;95.10;;;;;;4205967;28;20041;-54
2023/05/17 00:40:56;;;;;;;15.85;2.65;;;12.60;95.10;;;;;;4199544;28;20504;-53
2023/05/17 00:42:58;;;;;;;12.48;2.83;;;12.60;95.20;;;;;;4211071;28;20059;-54
2023/05/17 00:45:00;;;;;;;11.52;2.65;;;12.50;95.30;;;;;;4215902;28;20127;-55
2023/05/17 00:47:03;;;;;;;10.60;2.92;;;12.50;95.50;;;;;;4216085;28;20071;-54
2023/05/17 00:49:05;;;;;;;12.65;3.10;;;12.50;95.50;;;;;;4215668;28;20344;-53
2023/05/17 00:51:07;;;;;;;14.30;3.33;;;12.50;95.60;;;;;;4216097;28;20135;-53
2023/05/17 00:53:14;;;;;;;9.85;2.92;;;12.50;95.60;;;;;;4197322;28;20083;-55
2023/05/17 00:55:18;;;;;;;10.57;3.13;;;12.40;95.90;;;;;;4216236;28;20481;-56
2023/05/17 00:57:21;;;;;;;10.20;2.67;;;12.40;95.80;;;;;;4197853;28;20114;-53
2023/05/17 00:59:24;;;;;;;10.60;2.92;;;12.40;95.90;;;;;;4215806;28;20048;-55
2023/05/17 01:01:27;;;;;;;12.38;3.22;;;12.40;95.90;;;;;;4215885;28;20072;-53
2023/05/17 01:03:29;;;;;;;9.10;2.90;;;12.40;95.90;;;;;;4214763;28;20060;-52
2023/05/17 01:05:31;;;;;;;9.63;3.20;;;12.50;95.90;;;;;;4215901;28;20040;-55
2023/05/17 01:07:33;;;;;;;12.40;3.25;;;12.50;95.90;;;;;;4216021;28;20044;-55
2023/05/17 01:09:37;;;;;;;12.88;3.85;;;12.30;96.10;;;;;;4215705;28;20098;-55
2023/05/17 01:11:46;;;;;;;13.90;3.88;;;12.40;96.20;;;;;;4215874;28;20516;-56
2023/05/17 01:13:57;;;;;;;11.48;3.47;;;12.30;96.40;;;;;;4214474;28;20044;-54
2023/05/17 01:16:07;;;;;;;6.65;3.10;;;12.30;96.40;;;;;;4215959;28;20072;-54
2023/05/17 01:18:19;;;;;;;15.90;3.10;;;12.30;96.40;;;;;;4215640;28;20052;-55
2023/05/17 01:20:27;;;;;;;12.18;3.67;;;12.30;96.50;;;;;;4197577;28;20134;-55
2023/05/17 01:22:39;;;;;;;7.82;2.72;;;12.20;96.60;;;;;;4198518;28;20102;-55
2023/05/17 01:24:51;;;;;;;16.25;3.67;;;12.30;96.80;;;;;;4198238;28;20049;-52
2023/05/17 01:26:57;;;;;;;10.50;3.45;;;12.20;96.70;;;;;;4211713;28;20044;-52
2023/05/17 01:29:01;;;;;;;12.05;4.07;;;12.20;96.90;;;;;;4215667;28;20071;-55
2023/05/17 01:31:04;;;;;;;13.25;3.70;;;12.10;96.90;;;;;;4215208;28;20136;-55
2023/05/17 01:33:07;;;;;;;14.65;3.67;;;12.10;97.20;;;;;;4215427;28;20105;-54
2023/05/17 01:35:13;;;;;;;14.48;3.80;;;12.00;97.20;;;;;;4216342;28;20048;-54
2023/05/17 01:37:16;;;;;;;12.07;3.80;;;12.10;97.20;;;;;;4216578;28;20420;-54
2023/05/17 01:39:18;;;;;;;9.73;3.80;;;12.10;97.20;;;;;;4202528;28;20135;-55
2023/05/17 01:41:28;;;;;;;14.25;3.95;;;12.10;97.20;;;;;;4199248;28;20540;-55
2023/05/17 01:43:40;;;;;;;11.85;4.03;;;12.10;97.20;;;;;;4201124;28;20140;-53
2023/05/17 01:45:51;;;;;;;8.25;3.45;;;12.10;97.30;;;;;;4214916;28;20162;-55
2023/05/17 01:48:05;;;;;;;15.73;4.70;;;12.00;97.60;;;;;;4215940;28;20504;-52
2023/05/17 01:50:11;;;;;;;13.48;4.40;;;12.00;97.50;;;;;;4215634;28;20052;-54
2023/05/17 01:52:21;;;;;;;10.23;3.40;;;12.00;97.60;;;;;;4215581;28;20068;-60
2023/05/17 01:54:30;;;;;;;15.35;4.95;;;12.10;97.50;;;;;;4195997;28;20573;-54
2023/05/17 01:56:33;;;;;;;13.73;4.47;;;12.10;97.80;;;;;;4214998;28;20051;-54
2023/05/17 01:58:44;;;;;;;18.58;4.18;;;12.10;97.60;;;;;;4197179;28;20045;-55
2023/05/17 02:00:48;;;;;;;15.65;4.85;;;12.20;97.60;;;;;;4214616;28;20047;-58
2023/05/17 02:02:50;;;;;;;13.18;4.43;;;12.20;97.70;;;;;;4214763;28;20040;-52
2023/05/17 02:04:53;;;;;;;14.05;3.97;;;12.20;97.50;;;;;;4214830;28;20048;-54
2023/05/17 02:06:55;;;;;;;10.18;4.30;;;12.10;97.70;;;;;;4196860;28;20064;-54
2023/05/17 02:08:59;;;;;;;9.75;3.70;;;12.30;97.60;;;;;;4214824;28;20052;-53
2023/05/17 02:11:02;;;;;;;14.25;4.55;;;12.30;97.60;;;;;;4214901;28;20409;-54
2023/05/17 02:13:04;;;;;;;15.85;4.75;;;12.30;97.50;;;;;;4213898;28;20079;-54
2023/05/17 02:15:10;;;;;;;12.73;4.20;;;12.20;97.60;;;;;;4214258;28;20040;-53
2023/05/17 02:17:13;;;;;;;13.38;5.05;;;12.30;97.70;;;;;;4214607;28;20093;-54
2023/05/17 02:19:15;;;;;;;11.13;4.70;;;12.30;97.90;;;;;;4196930;28;20133;-55
2023/05/17 02:21:17;;;;;;;12.88;5.10;;;12.30;97.60;;;;;;4214658;28;20044;-54
2023/05/17 02:23:20;;;;;;;13.52;4.60;;;12.40;97.60;;;;;;4213876;28;20044;-55
2023/05/17 02:25:22;;;;;;;12.23;5.15;;;12.40;97.70;;;;;;4214109;28;20451;-54
2023/05/17 02:27:24;;;;;;;13.02;4.75;;;12.40;97.50;;;;;;4197770;28;20048;-54
2023/05/17 02:29:26;;;;;;;16.02;5.07;;;12.30;97.70;;;;;;4197540;28;20066;-54
2023/05/17 02:31:29;;;;;;;11.80;4.75;;;12.30;97.80;;;;;;4197758;28;20052;-54
2023/05/17 02:33:32;;;;;;;12.73;5.13;;;12.40;97.70;;;;;;4180656;28;20086;-56
2023/05/17 02:35:34;;;;;;;15.73;5.60;;;12.40;97.80;;;;;;4214271;28;20109;-54
2023/05/17 02:37:36;;;;;;;12.27;5.45;;;12.50;97.70;;;;;;4214334;28;20048;-54
2023/05/17 02:39:38;;;;;;;11.65;4.65;;;12.40;97.80;;;;;;4196127;28;20080;-55
2023/05/17 02:41:40;;;;;;;16.95;5.88;;;12.40;98.00;;;;;;4198820;28;20052;-55
2023/05/17 02:43:42;;;;;;;15.43;6.45;;;12.40;98.00;;;;;;4212939;28;20052;-54
2023/05/17 02:45:44;;;;;;;12.68;5.88;;;12.40;98.00;;;;;;4214086;28;20097;-55
2023/05/17 02:47:48;;;;;;;13.50;5.75;;;12.40;97.90;;;;;;4214327;28;20050;-54
2023/05/17 02:49:50;;;;;;;12.70;6.03;;;12.40;97.80;;;;;;4213929;28;20495;-55
2023/05/17 02:51:52;;;;;;;13.00;5.85;;;12.40;98.10;;;;;;4213735;28;20496;-54
2023/05/17 02:53:54;;;;;;;18.88;7.22;;;12.30;98.10;;;;;;4212944;28;20044;-54
2023/05/17 02:55:59;;;;;;;12.80;6.65;;;12.40;98.20;;;;;;4214065;28;20485;-54
2023/05/17 02:58:01;;;;;;;;;;;12.40;98.00;;;;;;4214472;28;20117;-54
2023/05/17 03:00:05;;;;;;;17.73;7.18;;;12.30;98.10;;;;;;4214020;28;19920;-51
2023/05/17 03:02:07;;;;;;;16.08;6.78;;;12.20;98.40;;;;;;4214086;28;20101;-51
2023/05/17 03:04:11;;;;;;;15.95;6.70;;;12.20;98.50;;;;;;4212878;28;20059;-52
2023/05/17 03:06:13;;;;;;;17.35;7.00;;;12.20;98.40;;;;;;4214291;28;20048;-55
2023/05/17 03:08:15;;;;;;;14.30;7.03;;;12.20;98.50;;;;;;4214019;28;20036;-55
2023/05/17 03:10:17;;;;;;;15.52;6.40;;;12.20;98.60;;;;;;4214929;28;20173;-54
2023/05/17 03:12:19;;;;;;;20.45;8.25;;;12.20;98.70;;;;;;4214943;28;20109;-54
2023/05/17 03:14:21;;;;;;;14.48;7.43;;;12.10;98.70;;;;;;4213765;28;20052;-57
2023/05/17 03:16:24;;;;;;;19.75;8.65;;;12.20;98.80;;;;;;4214245;28;20044;-55
2023/05/17 03:18:26;;;;;;;13.88;6.28;;;12.10;98.80;;;;;;4214484;28;20406;-55
2023/05/17 03:20:30;;;;;;;20.08;8.07;;;12.10;99.10;;;;;;4196202;28;20083;-55
2023/05/17 03:22:32;;;;;;;23.05;8.48;;;12.10;98.90;;;;;;4213907;28;20065;-52
2023/05/17 03:24:34;;;;;;;16.42;6.85;;;12.00;98.80;;;;;;4212855;28;20451;-54
2023/05/17 03:26:36;;;;;;;12.55;6.20;;;12.00;99.10;;;;;;4203411;28;20087;-54
2023/05/17 03:28:38;;;;;;;16.42;7.60;;;12.00;99.30;;;;;;4179085;28;20055;-55
2023/05/17 03:30:40;;;;;;;15.77;8.50;;;12.00;99.10;;;;;;4197156;28;20068;-53
2023/05/17 03:32:44;;;;;;;14.20;6.93;;;12.10;98.90;;;;;;4197340;28;20393;-54
2023/05/17 03:34:46;;;;;;;13.98;7.30;;;12.10;99.10;;;;;;4208370;28;20097;-54
2023/05/17 03:36:50;;;;;;;12.68;6.85;;;12.10;99.10;;;;;;4213889;28;20074;-54
2023/05/17 03:38:52;;;;;;;14.80;5.97;;;12.10;99.00;;;;;;4203674;28;20461;-62
2023/05/17 03:40:54;;;;;;;20.70;8.13;;;12.10;99.20;;;;;;4195898;28;20056;-54
2023/05/17 03:42:56;;;;;;;13.77;7.63;;;11.90;99.10;;;;;;4208863;28;20157;-54
2023/05/17 03:44:59;;;;;;;19.13;7.90;;;12.00;99.20;;;;;;4214195;28;20101;-54
2023/05/17 03:47:02;;;;;;;13.73;7.45;;;12.00;99.20;;;;;;4216435;28;20054;-56
2023/05/17 03:49:04;;;;;;;15.18;7.45;;;12.00;99.30;;;;;;4214436;28;20044;-54
2023/05/17 03:51:06;;;;;;;16.20;8.05;;;11.90;99.40;;;;;;4214650;28;20093;-54
2023/05/17 03:53:09;;;;;;;16.95;7.43;;;11.90;99.40;;;;;;4215766;28;20082;-57
2023/05/17 03:55:13;;;;;;;14.82;7.80;;;11.90;99.50;;;;;;4216538;28;20111;-56
2023/05/17 03:57:15;;;;;;;17.55;8.55;;;11.90;99.30;;;;;;4217120;28;20048;-55
2023/05/17 03:59:17;;;;;;;20.38;8.90;;;12.00;99.60;;;;;;4216395;28;20486;-54
2023/05/17 04:01:19;;;;;;;18.33;8.45;;;11.90;99.60;;;;;;4213771;28;20105;-59
2023/05/17 04:03:21;;;;;;;16.08;7.50;;;11.90;99.40;;;;;;4214401;28;20048;-55
2023/05/17 04:05:23;;;;;;;18.40;8.73;;;12.00;99.40;;;;;;4218456;28;20164;-55
2023/05/17 04:07:25;;;;;;;18.30;8.55;;;12.00;99.30;;;;;;4200840;28;20044;-54
2023/05/17 04:09:30;;;;;;;14.52;8.70;;;11.80;99.40;;;;;;4217059;28;20424;-55
2023/05/17 04:11:33;;;;;;;19.75;8.90;;;11.80;99.70;;;;;;4216460;28;20048;-53
2023/05/17 04:13:36;;;;;;;22.60;10.02;;;11.70;99.70;;;;;;4214854;28;20046;-56
2023/05/17 04:15:38;;;;;;;17.17;8.48;;;11.60;99.90;;;;;;4216465;28;20126;-55
2023/05/17 04:17:40;;;;;;;20.60;10.32;;;11.50;99.90;;;;;;4217180;28;20051;-56
2023/05/17 04:19:42;;;;;;;18.88;9.30;;;11.50;99.90;;;;;;4216760;28;20044;-55
2023/05/17 04:21:45;;;;;;;19.08;8.90;;;11.50;99.90;;;;;;4216662;28;20050;-54
2023/05/17 04:23:47;;;;;;;23.45;10.20;;;11.50;99.90;;;;;;4215413;28;20174;-56
2023/05/17 04:25:51;;;;;;;19.52;9.70;;;11.50;99.90;;;;;;4216148;28;20047;-57
2023/05/17 04:27:53;;;;;;;21.63;9.15;;;11.50;99.90;;;;;;4216759;28;20050;-58
2023/05/17 04:29:55;;;;;;;20.98;9.75;;;11.50;99.90;;;;;;4216206;28;20122;-57
2023/05/17 04:31:58;;;;;;;17.73;8.85;;;11.50;99.90;;;;;;4216613;28;20371;-58
2023/05/17 04:34:01;;;;;;;17.73;10.10;;;11.50;99.90;;;;;;4215205;28;20051;-58
2023/05/17 04:36:03;;;;;;;23.65;10.23;;;11.50;99.90;;;;;;4216470;28;20097;-57
2023/05/17 04:38:06;;;;;;;17.38;9.52;;;11.50;99.90;;;;;;4212787;28;20072;-53
2023/05/17 04:40:09;;;;;;;18.35;9.18;;;11.40;99.90;;;;;;4199658;28;20049;-54
2023/05/17 04:42:13;;;;;;;20.33;9.80;;;11.40;99.90;;;;;;4206401;28;20455;-55
2023/05/17 04:44:16;;;;;;;21.17;10.35;;;11.40;99.90;;;;;;4215587;28;20049;-58
2023/05/17 04:46:17;;;;;;;20.67;8.85;;;11.40;99.90;;;;;;4216099;28;20058;-57
2023/05/17 04:48:20;;;;;;;18.00;9.25;;;11.40;99.90;;;;;;4216458;28;20040;-56
2023/05/17 04:50:22;;;;;;;18.85;8.85;;;11.50;99.90;;;;;;4216166;28;20044;-57
2023/05/17 04:52:24;;;;;;;17.17;9.38;;;11.50;99.90;;;;;;4216270;28;20075;-56
2023/05/17 04:54:26;;;;;;;19.52;10.27;;;11.50;99.90;;;;;;4214521;28;20132;-55
2023/05/17 04:56:28;;;;;;;17.33;8.05;;;11.50;99.90;;;;;;4216078;28;20051;-54
2023/05/17 04:58:32;;;;;;;13.57;8.23;;;11.70;99.90;;;;;;4197866;28;20115;-53
2023/05/17 05:00:34;;;;;;;22.27;9.25;;;11.70;99.90;;;;;;4215883;28;20139;-54
2023/05/17 05:02:36;;;;;;;25.38;9.10;;;11.60;99.80;;;;;;4216258;28;20126;-54
2023/05/17 05:04:41;;;;;;;19.20;10.30;;;11.70;99.90;;;;;;4214621;28;20101;-59
2023/05/17 05:06:43;;;;;;;16.30;7.30;;;11.60;99.60;;;;;;4215933;28;20105;-53
2023/05/17 05:08:45;;;;;;;17.77;9.65;;;11.70;99.90;;;;;;4215664;28;20056;-53
2023/05/17 05:10:47;;;;;;;17.40;9.88;;;11.80;99.50;;;;;;4215741;28;20440;-54
2023/05/17 05:12:49;;;;;;;17.30;8.27;;;11.70;99.50;;;;;;4215788;28;20056;-54
2023/05/17 05:14:53;;;;;;;20.85;9.80;;;11.70;99.40;;;;;;4214139;28;20885;-54
2023/05/17 05:16:55;;;;;;;19.38;9.77;;;11.80;99.40;;;;;;4215666;28;20059;-53
2023/05/17 05:18:57;;;;;;;24.60;10.05;;;11.80;99.30;;;;;;4215754;28;20075;-53
2023/05/17 05:21:00;;;;;;;19.80;9.52;;;11.80;99.30;;;;;;4215830;28;20064;-54
2023/05/17 05:23:04;;;;;;;19.70;10.07;;;11.80;99.40;;;;;;4215203;28;20072;-56
2023/05/17 05:25:07;;;;;;;19.40;8.70;;;11.80;99.20;;;;;;4214302;28;20047;-56
2023/05/17 05:27:09;;;;;;;21.20;10.65;;;11.70;99.50;;;;;;4215650;28;20117;-56
2023/05/17 05:29:12;;;;;;;20.73;9.07;;;11.80;99.40;;;;;;4215539;28;20047;-57
2023/05/17 05:31:15;;;;;;;24.48;11.13;;;11.80;99.50;;;;;;4215532;28;20340;-55
2023/05/17 05:33:17;;;;;;;17.60;8.60;;;11.70;99.30;;;;;;4215329;28;20401;-54
2023/05/17 05:35:25;;;;;;;20.85;10.07;;;11.70;99.40;;;;;;4197759;28;20080;-54
2023/05/17 05:37:27;;;;;;;20.80;9.23;;;11.60;99.50;;;;;;4198350;28;20055;-57
2023/05/17 05:39:29;;;;;;;20.95;10.75;;;11.60;99.60;;;;;;4213884;28;20099;-54
2023/05/17 05:41:32;;;;;;;17.95;9.20;;;11.70;99.50;;;;;;4214729;28;20120;-54
2023/05/17 05:43:36;;;;;;;14.13;8.93;;;11.70;99.40;;;;;;4202029;28;20044;-53
2023/05/17 05:45:44;;;;;;;19.35;9.52;;;11.60;99.30;;;;;;4215142;28;20048;-55
2023/05/17 05:47:47;;;;;;;15.73;7.53;;;11.50;99.40;;;;;;4215231;28;20055;-56
2023/05/17 05:49:50;;;;;;;21.90;8.70;;;11.70;99.60;;;;;;4215470;28;20143;-56
2023/05/17 05:51:52;;;;;;;26.42;9.52;;;11.80;99.20;;;;;;4215045;28;20051;-56
2023/05/17 05:53:54;;;;;;;22.50;9.77;;;11.80;99.40;;;;;;4214155;28;20044;-54
2023/05/17 05:55:56;;;;;;;20.20;9.77;;;11.80;99.20;;;;;;4214886;28;20093;-54
2023/05/17 05:57:58;;;;;;;18.85;10.07;;;11.70;99.30;;;;;;4214959;28;20120;-54
2023/05/17 06:00:01;;;;;;;20.73;10.13;;;11.70;99.40;;;;;;4215305;28;20044;-53
2023/05/17 06:02:03;;;;;;;23.55;10.95;;;11.70;99.40;;;;;;4214936;28;20093;-54
2023/05/17 06:04:06;;;;;;;23.10;11.55;;;11.70;99.30;;;;;;4213986;28;20048;-52
2023/05/17 06:06:09;;;;;;;29.52;12.13;;;11.70;99.40;;;;;;4214676;28;20123;-54
2023/05/17 06:08:11;;;;;;;28.25;11.43;;;11.80;99.20;;;;;;4214854;28;20411;-54
2023/05/17 06:10:13;;;;;;;34.03;11.50;;;11.80;99.10;;;;;;4214769;28;20056;-54
2023/05/17 06:12:16;;;;;;;27.13;11.73;;;11.80;99.20;;;;;;4214716;28;20071;-53
2023/05/17 06:14:18;;;;;;;29.63;10.23;;;11.80;99.10;;;;;;4214483;28;20044;-53
2023/05/17 06:16:20;;;;;;;22.77;11.35;;;11.80;99.20;;;;;;4215043;28;20119;-54
2023/05/17 06:18:24;;;;;;;26.83;11.15;;;11.90;99.00;;;;;;4215255;28;20074;-54
2023/05/17 06:20:28;;;;;;;24.23;10.82;;;11.90;98.90;;;;;;4197844;28;20131;-53
2023/05/17 06:22:31;;;;;;;27.53;10.00;;;11.90;98.90;;;;;;4198594;28;20048;-53
2023/05/17 06:24:33;;;;;;;30.83;11.15;;;11.70;99.20;;;;;;4196750;28;20431;-53
2023/05/17 06:26:35;;;;;;;25.38;9.98;;;11.60;99.10;;;;;;4207503;28;20039;-53
2023/05/17 06:28:37;;;;;;;20.67;9.55;;;11.60;99.40;;;;;;4214741;28;20055;-53
2023/05/17 06:30:39;;;;;;;26.95;9.80;;;11.70;99.30;;;;;;4214605;28;20119;-53
2023/05/17 06:32:41;;;;;;;25.52;9.18;;;11.70;99.30;;;;;;4214445;28;20044;-53
2023/05/17 06:34:44;;;;;;;22.08;8.80;;;11.80;98.80;;;;;;4213207;28;20080;-54
2023/05/17 06:36:47;;;;;;;15.07;8.15;;;11.80;98.70;;;;;;4214019;28;20043;-53
2023/05/17 06:38:49;;;;;;;24.50;8.27;;;11.80;98.80;;;;;;4204605;28;20131;-53
2023/05/17 06:40:52;;;;;;;23.85;8.35;;;11.70;98.80;;;;;;4197648;28;20475;-54
2023/05/17 06:42:54;;;;;;;15.18;7.70;;;11.90;98.90;;;;;;4209711;28;20121;-54
2023/05/17 06:44:56;;;;;;;16.60;7.18;;;11.80;98.30;;;;;;4213184;28;20071;-55
2023/05/17 06:46:59;;;;;;;20.52;8.55;;;11.80;98.60;;;;;;4214322;28;20052;-57
2023/05/17 06:49:02;;;;;;;20.35;7.93;;;12.00;98.50;;;;;;4214656;28;20050;-56
2023/05/17 06:51:04;;;;;;;26.50;7.50;;;12.00;98.40;;;;;;4214025;28;20048;-57
2023/05/17 06:53:10;;;;;;;26.40;7.53;;;12.10;98.40;;;;;;4214263;28;20050;-56
2023/05/17 06:55:12;;;;;;;23.98;8.70;;;12.20;98.20;;;;;;4213201;28;20456;-55
2023/05/17 06:57:14;;;;;;;30.58;8.75;;;12.30;98.00;;;;;;4196152;28;20116;-56
2023/05/17 06:59:16;;;;;;;31.48;8.93;;;12.20;97.90;;;;;;4214056;28;20405;-57
2023/05/17 07:01:19;;;;;;;30.55;8.88;;;12.40;98.00;;;;;;4214077;28;20048;-56
2023/05/17 07:03:21;;;;;;;28.23;8.68;;;12.40;97.90;;;;;;4214192;28;20131;-56
2023/05/17 07:05:23;;;;;;;25.80;8.52;;;12.50;97.70;;;;;;4212411;28;20109;-56
2023/05/17 07:07:26;;;;;;;21.58;8.13;;;12.50;97.90;;;;;;4214013;28;20048;-57
2023/05/17 07:09:31;;;;;;;20.13;7.57;;;12.50;97.50;;;;;;4214189;28;20508;-56
2023/05/17 07:11:34;;;;;;;18.88;6.53;;;12.70;97.80;;;;;;4214085;28;20050;-56
2023/05/17 07:13:36;;;;;;;21.20;8.85;;;12.90;97.90;;;;;;4213715;28;20047;-55
2023/05/17 07:15:38;;;;;;;17.73;8.00;;;13.10;97.00;;;;;;4212762;28;20044;-57
2023/05/17 07:17:41;;;;;;;20.85;7.68;;;13.30;96.90;;;;;;4214138;28;20052;-56
2023/05/17 07:19:43;;;;;;;31.15;7.97;;;13.30;96.60;;;;;;4213310;28;20059;-56
2023/05/17 07:21:46;;;;;;;18.98;7.57;;;13.50;96.60;;;;;;4196208;28;20589;-57
2023/05/17 07:23:48;;;;;;;23.27;7.45;;;13.40;96.50;;;;;;4197095;28;20528;-57
2023/05/17 07:25:51;;;;;;;23.75;8.30;;;13.50;96.40;;;;;;4200310;28;20043;-57
2023/05/17 07:27:54;;;;;;;22.70;8.05;;;13.70;96.20;;;;;;4213859;28;20052;-57
2023/05/17 07:29:56;;;;;;;29.52;8.32;;;13.80;96.00;;;;;;4213775;28;20068;-57
2023/05/17 07:31:58;;;;;;;22.63;8.18;;;13.80;95.80;;;;;;4213658;28;20048;-56
2023/05/17 07:34:00;;;;;;;21.85;8.13;;;13.70;95.90;;;;;;4212625;28;20063;-56
2023/05/17 07:36:02;;;;;;;24.27;8.23;;;13.60;95.90;;;;;;4213468;28;20036;-58
2023/05/17 07:38:05;;;;;;;29.92;8.82;;;13.70;96.10;;;;;;4210055;28;20045;-52
2023/05/17 07:40:08;;;;;;;23.90;7.65;;;13.80;96.00;;;;;;4196859;28;20482;-53
2023/05/17 07:42:12;;;;;;;29.55;7.80;;;13.90;96.00;;;;;;4202462;28;20076;-54
2023/05/17 07:44:14;;;;;;;14.60;6.22;;;14.10;95.50;;;;;;4194771;28;20052;-54
2023/05/17 07:46:17;;;;;;;16.98;6.60;;;14.10;94.80;;;;;;4213699;28;20047;-54
2023/05/17 07:48:19;;;;;;;23.98;6.63;;;14.00;94.20;;;;;;4213358;28;20413;-56
2023/05/17 07:50:22;;;;;;;30.70;6.72;;;14.00;94.60;;;;;;4213836;28;20076;-56
2023/05/17 07:52:24;;;;;;;31.90;6.65;;;14.10;94.30;;;;;;4213968;28;20057;-56
2023/05/17 07:54:29;;;;;;;21.50;7.50;;;14.10;94.00;;;;;;4212969;28;20090;-59
2023/05/17 07:56:32;;;;;;;18.25;5.78;;;14.00;94.10;;;;;;4213383;28;20048;-55
2023/05/17 07:58:36;;;;;;;20.65;6.13;;;14.10;94.00;;;;;;4213428;28;20075;-55
2023/05/17 08:00:38;;;;;;;20.25;6.70;;;14.00;93.80;;;;;;4213480;28;20130;-56
2023/05/17 08:02:40;;;;;;;15.07;6.57;;;14.20;94.20;;;;;;4213036;28;20079;-56
2023/05/17 08:04:42;;;;;;;24.98;6.78;;;14.10;94.00;;;;;;4212195;28;20101;-55
2023/05/17 08:06:45;;;;;;;22.05;7.00;;;14.10;94.20;;;;;;4213098;28;20079;-55
2023/05/17 08:08:47;;;;;;;22.40;6.95;;;14.20;94.50;;;;;;4213360;28;20074;-55
2023/05/17 08:10:49;;;;;;;23.05;6.43;;;14.20;94.10;;;;;;4195575;28;20049;-55
2023/05/17 08:12:52;;;;;;;21.75;7.18;;;14.10;93.90;;;;;;4213409;28;20454;-55
2023/05/17 08:14:58;;;;;;;18.20;6.65;;;14.00;93.50;;;;;;4194902;28;20118;-55
2023/05/17 08:17:00;;;;;;;18.77;6.53;;;14.10;93.80;;;;;;4213212;28;20044;-55
2023/05/17 08:19:02;;;;;;;23.90;7.35;;;14.40;93.80;;;;;;4205237;28;20148;-56
2023/05/17 08:21:05;;;;;;;17.95;6.35;;;14.40;93.30;;;;;;4205697;28;20048;-53
2023/05/17 08:23:07;;;;;;;17.63;6.25;;;14.40;93.80;;;;;;4212786;28;20052;-53
2023/05/17 08:25:09;;;;;;;27.65;6.95;;;14.60;93.30;;;;;;4211795;28;20111;-54
2023/05/17 08:27:11;;;;;;;20.23;6.10;;;14.60;92.90;;;;;;4213170;28;20101;-53
2023/05/17 08:29:13;;;;;;;23.98;6.30;;;14.50;94.00;;;;;;4213042;28;20404;-53
2023/05/17 08:31:17;;;;;;;25.00;7.50;;;14.70;93.00;;;;;;4213252;28;20123;-52
2023/05/17 08:33:21;;;;;;;23.95;6.07;;;14.50;92.90;;;;;;4213010;28;20044;-55
2023/05/17 08:35:24;;;;;;;21.08;6.10;;;14.50;92.40;;;;;;4212003;28;20040;-56
2023/05/17 08:37:29;;;;;;;19.73;5.75;;;14.70;93.30;;;;;;4213318;28;20487;-54
2023/05/17 08:39:32;;;;;;;26.33;6.45;;;14.90;92.90;;;;;;4197741;28;20048;-54
2023/05/17 08:41:34;;;;;;;12.10;5.13;;;15.00;91.60;;;;;;4190140;28;20060;-53
2023/05/17 08:43:40;;;;;;;;;;;15.00;91.80;;;;;;4206547;28;20436;-54
2023/05/17 08:45:42;;;;;;;14.02;5.85;;;15.20;91.50;;;;;;4207044;28;19967;-52
2023/05/17 08:47:46;;;;;;;13.73;5.10;;;15.00;91.80;;;;;;4178341;28;20095;-54
2023/05/17 08:49:48;;;;;;;19.17;5.18;;;15.10;92.10;;;;;;4211040;28;20055;-53
2023/05/17 08:51:52;;;;;;;14.20;5.15;;;15.20;92.10;;;;;;4199135;28;20862;-53
2023/05/17 08:53:55;;;;;;;22.02;5.75;;;15.60;91.70;;;;;;4211133;28;20044;-56
2023/05/17 08:55:59;;;;;;;15.25;5.75;;;15.50;90.60;;;;;;4206093;28;20044;-53
2023/05/17 08:58:03;;;;;;;19.67;5.63;;;15.50;90.80;;;;;;4209965;28;20634;-53
2023/05/17 09:00:12;;;;;;;16.75;5.22;;;15.40;90.60;;;;;;4210837;28;20123;-54
2023/05/17 09:02:15;;;;;;;14.48;5.38;;;15.40;90.30;;;;;;4200681;28;20045;-54
2023/05/17 09:04:19;;;;;;;22.98;5.40;;;15.50;90.60;;;;;;4210194;28;20040;-54
2023/05/17 09:06:22;;;;;;;29.42;6.38;;;15.80;90.80;;;;;;4206600;28;20494;-53
2023/05/17 09:08:25;;;;;;;19.35;4.90;;;15.80;90.50;;;;;;4198330;28;20452;-54
2023/05/17 09:10:30;;;;;;;16.27;4.47;;;15.80;89.50;;;;;;4210892;28;20047;-54
2023/05/17 09:12:35;;;;;;;28.75;5.30;;;15.90;89.20;;;;;;4198499;28;20136;-54
2023/05/17 09:14:37;;;;;;;18.80;5.07;;;15.80;89.20;;;;;;4201311;28;20101;-56
2023/05/17 09:16:40;;;;;;;18.83;5.03;;;15.90;89.20;;;;;;4206297;28;20051;-57
2023/05/17 09:18:42;;;;;;;12.13;4.95;;;15.90;88.50;;;;;;4198094;28;20132;-57
2023/05/17 09:20:50;;;;;;;20.63;4.57;;;15.90;89.10;;;;;;4210032;28;20046;-57
2023/05/17 09:22:53;;;;;;;19.48;4.32;;;16.10;89.00;;;;;;4201859;28;20140;-56
2023/05/17 09:24:58;;;;;;;15.13;4.38;;;16.00;88.30;;;;;;4209045;28;20060;-53
2023/05/17 09:27:02;;;;;;;10.13;4.30;;;16.10;88.00;;;;;;4214891;28;20047;-56
2023/05/17 09:29:08;;;;;;;18.15;4.93;;;16.10;87.50;;;;;;4215180;28;20047;-56
2023/05/17 09:31:14;;;;;;;17.35;4.20;;;16.30;88.90;;;;;;4201466;28;20474;-56
2023/05/17 09:33:20;;;;;;;13.23;4.10;;;16.50;87.70;;;;;;4199397;28;20047;-56
2023/05/17 09:35:28;;;;;;;23.75;4.85;;;16.40;86.90;;;;;;4203416;28;20048;-53
2023/05/17 09:37:32;;;;;;;13.75;4.30;;;16.30;86.10;;;;;;4214833;28;20097;-57
2023/05/17 09:39:35;;;;;;;16.83;4.47;;;16.60;86.70;;;;;;4214165;28;20047;-58
2023/05/17 09:41:41;;;;;;;17.63;4.90;;;16.20;86.10;;;;;;4203844;28;20134;-53
2023/05/17 09:43:43;;;;;;;15.85;4.05;;;16.40;88.10;;;;;;4206011;28;20496;-53
2023/05/17 09:45:55;;;;;;;17.70;4.18;;;16.50;87.90;;;;;;4211971;28;20540;-54
2023/05/17 09:48:09;;;;;;;12.55;4.47;;;16.40;83.50;;;;;;4203788;28;20044;-58
2023/05/17 09:50:17;;;;;;;14.82;4.15;;;16.50;83.20;;;;;;4209592;28;20075;-53
2023/05/17 09:52:20;;;;;;;16.75;4.90;;;16.30;84.60;;;;;;4213497;28;20046;-53
2023/05/17 09:54:24;;;;;;;31.40;5.13;;;16.30;84.60;;;;;;4214526;28;20044;-54
2023/05/17 09:56:30;;;;;;;21.40;4.93;;;16.40;84.90;;;;;;4210726;28;20090;-53
2023/05/17 09:58:35;;;;;;;15.25;5.43;;;16.50;84.70;;;;;;4214360;28;20391;-57
2023/05/17 10:00:38;;;;;;;;;;;16.80;85.00;;;;;;4214072;28;20487;-53
2023/05/17 10:02:43;;;;;;;10.30;3.42;;;16.80;82.80;;;;;;4203386;28;20633;-54
2023/05/17 10:04:48;;;;;;;11.65;3.70;;;16.70;81.70;;;;;;4213612;28;20090;-53
2023/05/17 10:06:52;;;;;;;13.80;3.78;;;16.70;81.30;;;;;;4205467;28;20504;-52
2023/05/17 10:08:56;;;;;;;9.30;4.15;;;16.60;82.00;;;;;;4203506;28;20044;-53
2023/05/17 10:11:05;;;;;;;15.82;4.68;;;16.70;83.00;;;;;;4199656;28;20043;-53
2023/05/17 10:13:09;;;;;;;13.73;4.63;;;16.60;83.10;;;;;;4202656;28;20089;-53
2023/05/17 10:15:12;;;;;;;11.48;4.07;;;16.60;83.30;;;;;;4213182;28;20391;-54
2023/05/17 10:17:16;;;;;;;8.98;3.80;;;16.70;83.50;;;;;;4205234;28;20052;-54
2023/05/17 10:19:19;;;;;;;15.35;3.90;;;16.90;83.20;;;;;;4210914;28;20047;-53
2023/05/17 10:21:22;;;;;;;14.10;3.77;;;17.10;81.70;;;;;;4210841;28;20044;-53
2023/05/17 10:23:26;;;;;;;14.85;4.00;;;16.90;81.50;;;;;;4208696;28;20049;-54
2023/05/17 10:25:29;;;;;;;11.63;3.13;;;17.00;82.30;;;;;;4197628;28;20079;-54
2023/05/17 10:27:33;;;;;;;8.65;3.33;;;17.10;80.70;;;;;;4209211;28;20047;-53
2023/05/17 10:29:38;;;;;;;8.75;3.03;;;17.00;82.00;;;;;;4201195;28;20072;-53
2023/05/17 10:31:42;;;;;;;8.27;3.65;;;17.20;82.60;;;;;;4198377;28;20044;-54
2023/05/17 10:33:49;;;;;;;12.82;3.38;;;17.20;81.60;;;;;;4211916;28;20044;-53